Time;durP1;ratioP1;P1;durP2;ratioP2;P2;SDS_P1;SDS_P2;PMS_P1;PMS_P2;Temp;Humidity;BMP_temperature;BMP_pressure;BME280_temperature;BME280_humidity;BME280_pressure;Samples;Min_cycle;Max_cycle;Signal;HPM_P1;HPM_P2
2020/12/05 00:02:00;;;;;;;3.17;2.30;;;7.00;73.00;;;;;;5028239;28;20075;-77
2020/12/05 00:04:26;;;;;;;4.30;2.20;;;7.00;73.00;;;;;;5027286;28;20041;-77
2020/12/05 00:06:52;;;;;;;2.75;2.05;;;7.00;73.10;;;;;;5026149;28;20033;-77
2020/12/05 00:09:18;;;;;;;2.83;1.88;;;7.00;73.10;;;;;;5025571;28;20045;-77
2020/12/05 00:11:44;;;;;;;3.25;2.20;;;7.00;73.10;;;;;;5027482;28;20480;-77
2020/12/05 00:14:10;;;;;;;2.90;2.05;;;7.00;73.10;;;;;;5028105;28;20145;-77
2020/12/05 00:16:36;;;;;;;2.90;1.77;;;7.00;73.20;;;;;;5027177;28;20852;-77
2020/12/05 00:19:02;;;;;;;2.10;1.90;;;7.00;73.10;;;;;;5027882;28;20029;-76
2020/12/05 00:21:28;;;;;;;2.17;1.80;;;7.00;73.20;;;;;;5027337;28;20033;-77
2020/12/05 00:23:54;;;;;;;2.00;1.80;;;7.00;73.20;;;;;;5009085;28;20041;-77
2020/12/05 00:26:21;;;;;;;1.80;1.70;;;7.00;73.20;;;;;;5027451;28;20025;-77
2020/12/05 00:28:48;;;;;;;1.77;1.50;;;7.00;73.20;;;;;;5025437;28;20117;-77
2020/12/05 00:31:16;;;;;;;2.83;2.08;;;7.00;73.20;;;;;;5027185;28;20021;-77
2020/12/05 00:33:43;;;;;;;2.83;1.83;;;7.00;73.20;;;;;;5026180;28;20041;-77
2020/12/05 00:36:10;;;;;;;2.53;1.77;;;6.90;73.10;;;;;;5027254;28;20029;-77
2020/12/05 00:38:37;;;;;;;2.17;1.85;;;7.00;73.30;;;;;;5026042;28;20243;-77
2020/12/05 00:41:04;;;;;;;2.75;1.60;;;6.90;73.10;;;;;;5009274;28;20041;-76
2020/12/05 00:43:36;;;;;;;3.15;1.70;;;6.90;73.10;;;;;;5025884;28;20045;-77
2020/12/05 00:46:03;;;;;;;3.10;1.88;;;6.90;73.10;;;;;;5026817;28;20433;-77
2020/12/05 00:48:30;;;;;;;2.42;2.05;;;6.90;73.10;;;;;;5025509;28;20048;-77
2020/12/05 00:50:57;;;;;;;2.28;1.80;;;7.00;73.30;;;;;;5025787;28;20087;-77
2020/12/05 00:53:24;;;;;;;3.17;2.03;;;6.90;73.10;;;;;;5009000;28;20107;-77
2020/12/05 00:55:50;;;;;;;1.98;1.65;;;6.90;73.20;;;;;;5025484;28;20055;-77
2020/12/05 00:58:16;;;;;;;3.80;1.58;;;7.00;73.30;;;;;;5025519;28;20041;-77
2020/12/05 01:00:42;;;;;;;1.77;1.58;;;6.90;73.20;;;;;;5027417;28;20038;-76
2020/12/05 01:03:09;;;;;;;1.92;1.73;;;6.90;73.20;;;;;;5026693;28;20083;-76
2020/12/05 01:05:36;;;;;;;1.73;1.55;;;6.90;73.20;;;;;;5026022;28;20227;-76
2020/12/05 01:08:04;;;;;;;2.42;1.65;;;6.90;73.20;;;;;;5025589;28;20040;-77
2020/12/05 01:10:30;;;;;;;2.05;1.77;;;6.90;73.20;;;;;;5026526;28;20037;-76
2020/12/05 01:12:56;;;;;;;1.90;1.63;;;6.90;73.20;;;;;;5026624;28;20105;-76
2020/12/05 01:15:22;;;;;;;1.70;1.55;;;6.90;73.20;;;;;;5026690;28;20124;-76
2020/12/05 01:17:48;;;;;;;1.50;1.40;;;6.90;73.20;;;;;;5025307;28;20045;-77
2020/12/05 01:20:14;;;;;;;1.60;1.50;;;6.90;73.20;;;;;;5026106;28;20133;-76
2020/12/05 01:22:40;;;;;;;2.65;2.03;;;6.90;73.20;;;;;;5024593;28;20037;-77
2020/12/05 01:25:08;;;;;;;1.85;1.50;;;6.90;73.20;;;;;;5024209;28;20033;-77
2020/12/05 01:27:34;;;;;;;2.10;1.83;;;6.80;73.10;;;;;;5024981;28;20489;-76
2020/12/05 01:30:00;;;;;;;1.30;1.20;;;6.90;73.30;;;;;;5024901;28;20029;-76
2020/12/05 01:32:26;;;;;;;1.80;1.70;;;6.80;73.10;;;;;;5026021;28;20462;-76
2020/12/05 01:34:52;;;;;;;1.60;1.50;;;6.90;73.30;;;;;;5025713;28;20037;-76
2020/12/05 01:37:18;;;;;;;1.75;1.50;;;6.80;73.10;;;;;;5026404;28;20055;-75
2020/12/05 01:39:44;;;;;;;1.95;1.75;;;6.90;73.30;;;;;;5026124;28;20124;-76
2020/12/05 01:42:10;;;;;;;1.67;1.50;;;6.80;73.10;;;;;;5026406;28;20027;-76
2020/12/05 01:44:36;;;;;;;2.85;1.70;;;6.90;73.30;;;;;;5024836;28;20033;-76
2020/12/05 01:47:03;;;;;;;2.25;1.85;;;6.90;73.30;;;;;;5025653;28;20675;-76
2020/12/05 01:49:31;;;;;;;2.28;1.80;;;6.80;73.20;;;;;;5024240;28;20275;-76
2020/12/05 01:51:59;;;;;;;2.10;1.60;;;6.80;73.20;;;;;;5026265;28;20449;-76
2020/12/05 01:54:26;;;;;;;1.92;1.63;;;6.80;73.20;;;;;;5025650;28;20033;-76
2020/12/05 01:57:00;;;;;;;1.40;1.30;;;6.80;73.20;;;;;;5025898;28;20052;-76
2020/12/05 01:59:27;;;;;;;2.08;1.65;;;6.80;73.20;;;;;;5025816;28;20510;-76
2020/12/05 02:01:57;;;;;;;3.05;1.40;;;6.80;73.20;;;;;;5024705;28;20026;-76
2020/12/05 02:04:30;;;;;;;1.73;1.60;;;6.80;73.20;;;;;;5026019;28;20127;-77
2020/12/05 02:07:16;;;;;;;1.50;1.40;;;6.80;73.20;;;;;;5007933;28;20029;-77
2020/12/05 02:09:47;;;;;;;1.30;1.30;;;6.80;73.20;;;;;;5025850;28;20547;-77
2020/12/05 02:12:34;;;;;;;2.03;1.50;;;6.80;73.20;;;;;;5026032;28;20120;-77
2020/12/05 02:15:10;;;;;;;2.03;1.70;;;6.80;73.20;;;;;;5026192;28;20616;-76
2020/12/05 02:17:40;;;;;;;1.60;1.50;;;6.80;73.20;;;;;;5025932;28;20561;-76
2020/12/05 02:20:08;;;;;;;1.58;1.40;;;6.90;73.90;;;;;;5029135;28;20030;-77
2020/12/05 02:22:45;;;;;;;2.15;1.50;;;6.80;73.20;;;;;;5029168;28;20556;-77
2020/12/05 02:25:12;;;;;;;1.75;1.40;;;6.80;73.20;;;;;;5028030;28;20199;-76
2020/12/05 02:27:42;;;;;;;1.77;1.55;;;6.90;73.40;;;;;;5028382;28;20029;-77
2020/12/05 02:30:10;;;;;;;1.50;1.40;;;6.90;73.40;;;;;;5029137;28;20033;-75
2020/12/05 02:32:36;;;;;;;1.63;1.38;;;6.90;73.40;;;;;;5029833;28;20036;-77
2020/12/05 02:35:03;;;;;;;2.22;1.40;;;6.90;73.50;;;;;;5029568;28;20199;-77
2020/12/05 02:37:31;;;;;;;1.50;1.40;;;6.90;73.50;;;;;;5027599;28;20311;-75
2020/12/05 02:40:00;;;;;;;1.27;1.23;;;6.90;73.50;;;;;;5029771;28;20504;-77
2020/12/05 02:42:26;;;;;;;1.50;1.40;;;6.90;73.50;;;;;;5029441;28;20095;-77
2020/12/05 02:44:53;;;;;;;1.80;1.70;;;6.80;73.30;;;;;;5027937;28;20392;-77
2020/12/05 02:47:20;;;;;;;1.58;1.35;;;6.80;73.30;;;;;;5019835;28;20050;-77
2020/12/05 02:49:47;;;;;;;1.30;1.20;;;6.90;73.50;;;;;;5016408;28;20474;-77
2020/12/05 02:52:14;;;;;;;2.13;1.60;;;6.90;73.50;;;;;;5011905;28;20029;-76
2020/12/05 02:54:39;;;;;;;1.20;1.20;;;6.90;73.50;;;;;;5012230;28;20034;-77
2020/12/05 02:57:06;;;;;;;2.13;1.33;;;6.90;73.50;;;;;;5012024;28;20108;-77
2020/12/05 02:59:32;;;;;;;1.55;1.40;;;6.90;73.50;;;;;;5012347;28;20034;-76
2020/12/05 03:01:58;;;;;;;1.63;1.52;;;6.80;73.30;;;;;;5026971;28;20056;-77
2020/12/05 03:04:24;;;;;;;1.10;1.10;;;6.80;73.40;;;;;;5011593;28;20557;-76
2020/12/05 03:06:50;;;;;;;1.50;1.40;;;6.80;73.30;;;;;;5011739;28;20099;-77
2020/12/05 03:09:16;;;;;;;1.17;1.17;;;6.80;73.40;;;;;;5027060;28;20441;-76
2020/12/05 03:11:42;;;;;;;1.27;1.15;;;6.80;73.40;;;;;;5012730;28;20030;-77
2020/12/05 03:14:09;;;;;;;1.20;1.20;;;6.80;73.40;;;;;;5027730;28;20064;-76
2020/12/05 03:16:35;;;;;;;1.48;1.38;;;6.80;73.40;;;;;;5012170;28;20362;-76
2020/12/05 03:19:01;;;;;;;1.63;1.52;;;6.80;73.40;;;;;;5011779;28;20543;-77
2020/12/05 03:21:27;;;;;;;1.45;1.35;;;6.80;73.50;;;;;;5011976;28;20041;-76
2020/12/05 03:23:54;;;;;;;3.03;1.42;;;6.80;73.50;;;;;;5012386;28;20098;-77
2020/12/05 03:26:19;;;;;;;1.70;1.40;;;6.80;73.50;;;;;;5009880;28;20032;-78
2020/12/05 03:28:45;;;;;;;1.35;1.27;;;6.80;73.50;;;;;;5011408;28;20112;-76
2020/12/05 03:31:35;;;;;;;1.88;1.27;;;6.80;73.50;;;;;;5010628;28;20031;-77
2020/12/05 03:34:03;;;;;;;1.35;1.25;;;6.80;73.50;;;;;;5016294;28;20041;-76
2020/12/05 03:36:29;;;;;;;1.40;1.30;;;6.80;73.50;;;;;;5022566;28;20481;-77
2020/12/05 03:38:54;;;;;;;1.30;1.20;;;6.80;73.50;;;;;;5013641;28;20029;-78
2020/12/05 03:41:23;;;;;;;2.08;1.23;;;6.80;73.50;;;;;;5013358;28;20036;-77
2020/12/05 03:43:49;;;;;;;1.52;1.40;;;6.80;73.50;;;;;;5031387;28;20098;-77
2020/12/05 03:46:16;;;;;;;2.13;1.40;;;6.80;73.50;;;;;;5029700;28;20389;-76
2020/12/05 03:48:41;;;;;;;1.60;1.50;;;6.80;73.50;;;;;;5029910;28;20033;-77
2020/12/05 03:51:07;;;;;;;1.48;1.33;;;6.80;73.50;;;;;;5030045;28;20140;-77
2020/12/05 03:53:33;;;;;;;3.97;1.15;;;6.80;73.50;;;;;;5029826;28;20215;-77
2020/12/05 03:55:59;;;;;;;1.48;1.05;;;6.80;73.50;;;;;;5030719;28;20040;-77
2020/12/05 03:58:25;;;;;;;1.50;1.40;;;6.80;73.50;;;;;;5012841;28;20041;-77
2020/12/05 04:00:51;;;;;;;1.42;1.20;;;6.80;73.50;;;;;;5028545;28;20374;-77
2020/12/05 04:03:17;;;;;;;1.60;1.50;;;6.80;73.50;;;;;;5029461;28;20042;-76
2020/12/05 04:05:43;;;;;;;1.50;1.40;;;6.80;73.50;;;;;;5030099;28;20109;-76
2020/12/05 04:08:09;;;;;;;1.45;1.30;;;6.80;73.60;;;;;;5030111;28;20547;-77
2020/12/05 04:10:35;;;;;;;1.50;1.40;;;6.80;73.60;;;;;;5029495;28;20060;-76
2020/12/05 04:13:01;;;;;;;1.23;1.13;;;6.80;73.60;;;;;;5018387;28;20122;-77
2020/12/05 04:15:27;;;;;;;1.50;1.40;;;6.80;73.60;;;;;;5027565;28;20029;-76
2020/12/05 04:17:53;;;;;;;1.45;1.35;;;6.70;73.40;;;;;;5022407;28;20033;-78
2020/12/05 04:20:19;;;;;;;1.52;1.42;;;6.70;73.40;;;;;;5029456;28;20026;-77
2020/12/05 04:22:45;;;;;;;1.70;1.50;;;6.70;73.40;;;;;;5029369;28;20117;-78
2020/12/05 04:25:11;;;;;;;3.90;1.70;;;6.80;73.60;;;;;;5030583;28;20426;-77
2020/12/05 04:27:37;;;;;;;1.60;1.50;;;6.70;73.40;;;;;;5030924;28;20021;-77
2020/12/05 04:30:04;;;;;;;1.67;1.58;;;6.80;73.60;;;;;;5013053;28;20041;-77
2020/12/05 04:32:30;;;;;;;1.60;1.50;;;6.70;73.50;;;;;;5012418;28;20030;-78
2020/12/05 04:34:56;;;;;;;2.58;1.75;;;6.70;73.40;;;;;;5029593;28;20087;-77
2020/12/05 04:37:23;;;;;;;1.80;1.70;;;6.70;73.50;;;;;;5028920;28;20120;-77
2020/12/05 04:39:49;;;;;;;1.90;1.80;;;6.80;73.60;;;;;;5021713;28;20036;-77
2020/12/05 04:42:16;;;;;;;1.80;1.70;;;6.80;73.60;;;;;;5023532;28;20079;-77
2020/12/05 04:44:43;;;;;;;2.25;2.03;;;6.80;73.60;;;;;;5010870;28;20180;-77
2020/12/05 04:47:15;;;;;;;1.95;1.73;;;6.80;73.60;;;;;;5009151;28;20049;-77
2020/12/05 04:49:42;;;;;;;2.05;1.85;;;6.70;73.50;;;;;;5011284;28;20091;-77
2020/12/05 04:52:24;;;;;;;2.08;1.85;;;6.80;73.60;;;;;;5015153;28;20445;-77
2020/12/05 04:54:55;;;;;;;1.70;1.60;;;6.70;73.50;;;;;;5015628;28;20046;-77
2020/12/05 04:57:26;;;;;;;7.60;2.10;;;6.70;73.40;;;;;;5009136;28;20096;-77
2020/12/05 04:59:53;;;;;;;2.17;1.83;;;6.70;73.50;;;;;;5010480;28;20628;-77
2020/12/05 05:02:29;;;;;;;2.70;2.00;;;6.70;73.50;;;;;;5009568;28;20557;-77
2020/12/05 05:04:56;;;;;;;2.60;1.92;;;6.70;73.50;;;;;;5010655;28;20492;-76
2020/12/05 05:07:22;;;;;;;1.98;1.80;;;6.70;73.50;;;;;;5010084;28;20029;-76
2020/12/05 05:09:53;;;;;;;2.25;2.10;;;6.70;73.50;;;;;;5010482;28;20033;-77
2020/12/05 05:12:35;;;;;;;2.30;1.83;;;6.70;73.50;;;;;;5024707;28;20125;-74
2020/12/05 05:15:01;;;;;;;2.17;1.98;;;6.70;73.50;;;;;;5025473;28;20030;-76
2020/12/05 05:17:27;;;;;;;2.10;2.00;;;6.70;73.60;;;;;;5009711;28;20109;-76
2020/12/05 05:19:53;;;;;;;2.53;2.15;;;6.70;73.50;;;;;;5009281;28;20109;-76
2020/12/05 05:22:23;;;;;;;2.10;1.92;;;6.70;73.60;;;;;;5008370;28;20045;-76
2020/12/05 05:25:04;;;;;;;3.00;1.88;;;6.70;74.10;;;;;;5010185;28;20080;-77
2020/12/05 05:27:30;;;;;;;2.13;1.92;;;6.70;73.60;;;;;;5007992;28;20029;-78
2020/12/05 05:30:07;;;;;;;2.20;2.00;;;6.70;73.60;;;;;;5017778;28;20072;-77
2020/12/05 05:32:42;;;;;;;2.15;1.95;;;6.70;73.60;;;;;;5019409;28;20525;-77
2020/12/05 05:35:12;;;;;;;1.80;1.70;;;6.70;73.60;;;;;;5011469;28;20022;-76
2020/12/05 05:37:43;;;;;;;5.75;2.20;;;6.70;73.60;;;;;;5028534;28;20120;-77
2020/12/05 05:40:12;;;;;;;2.53;2.33;;;6.70;73.60;;;;;;5029496;28;20786;-76
2020/12/05 05:42:40;;;;;;;2.00;1.90;;;6.70;73.60;;;;;;5029173;28;20571;-77
2020/12/05 05:45:20;;;;;;;2.70;2.50;;;6.70;73.60;;;;;;5011465;28;20037;-77
2020/12/05 05:47:47;;;;;;;2.13;2.03;;;6.70;73.60;;;;;;5020537;28;20049;-77
2020/12/05 05:50:25;;;;;;;2.10;2.00;;;6.60;73.40;;;;;;5006454;28;20037;-77
2020/12/05 05:52:57;;;;;;;3.78;2.65;;;6.70;73.60;;;;;;5006382;28;20034;-77
2020/12/05 05:55:46;;;;;;;2.47;2.28;;;6.60;73.50;;;;;;5004785;28;20040;-77
2020/12/05 05:58:14;;;;;;;2.60;2.40;;;6.60;73.50;;;;;;5010287;28;20124;-77
2020/12/05 06:00:42;;;;;;;2.25;2.10;;;6.60;73.50;;;;;;5025862;28;20025;-76
2020/12/05 06:03:25;;;;;;;2.53;2.33;;;6.60;73.50;;;;;;5023427;28;20211;-77
2020/12/05 06:05:55;;;;;;;4.32;2.60;;;6.60;73.50;;;;;;5010146;28;20026;-77
2020/12/05 06:08:29;;;;;;;2.75;2.55;;;6.60;73.50;;;;;;5020041;28;20442;-75
2020/12/05 06:11:02;;;;;;;;;;;6.60;73.50;;;;;;5025946;28;20097;-76
2020/12/05 06:13:30;;;;;;;2.85;2.40;;;6.60;73.50;;;;;;5025371;28;20427;-77
2020/12/05 06:15:57;;;;;;;2.40;2.20;;;6.60;73.40;;;;;;5024031;28;20488;-76
2020/12/05 06:18:24;;;;;;;2.67;2.47;;;6.60;73.50;;;;;;5025124;28;20476;-76
2020/12/05 06:20:50;;;;;;;2.40;2.20;;;6.60;73.50;;;;;;5025552;28;20485;-76
2020/12/05 06:23:32;;;;;;;2.20;2.03;;;6.60;73.50;;;;;;5024482;28;20049;-76
2020/12/05 06:26:00;;;;;;;2.75;2.50;;;6.60;73.60;;;;;;5025796;28;20033;-75
2020/12/05 06:28:28;;;;;;;2.30;2.20;;;6.60;73.60;;;;;;4991614;28;20026;-76
2020/12/05 06:30:54;;;;;;;2.30;2.20;;;6.60;73.60;;;;;;5025674;28;20401;-76
2020/12/05 06:33:39;;;;;;;3.88;2.63;;;6.60;73.60;;;;;;5025430;28;20113;-76
2020/12/05 06:36:27;;;;;;;2.63;2.42;;;6.60;73.60;;;;;;5023709;28;20617;-76
2020/12/05 06:39:12;;;;;;;2.75;2.50;;;6.60;73.60;;;;;;5024363;28;20044;-76
2020/12/05 06:41:41;;;;;;;2.20;2.10;;;6.60;73.60;;;;;;5023735;28;20065;-76
2020/12/05 06:44:07;;;;;;;2.28;1.92;;;6.60;73.60;;;;;;5023029;28;20060;-75
2020/12/05 06:46:45;;;;;;;2.50;2.30;;;6.60;73.60;;;;;;5022589;28;20076;-75
2020/12/05 06:49:11;;;;;;;2.47;2.28;;;6.60;73.60;;;;;;5022948;28;20029;-76
2020/12/05 06:51:37;;;;;;;2.47;2.28;;;6.60;73.60;;;;;;5023207;28;20032;-76
2020/12/05 06:54:03;;;;;;;2.15;2.03;;;6.50;73.40;;;;;;5024546;28;20053;-76
2020/12/05 06:56:29;;;;;;;2.10;2.00;;;6.50;73.50;;;;;;5024701;28;20112;-77
2020/12/05 06:58:56;;;;;;;3.72;2.33;;;6.50;73.50;;;;;;5025050;28;20108;-76
2020/12/05 07:01:31;;;;;;;1.85;1.75;;;6.50;73.50;;;;;;5025143;28;20080;-76
2020/12/05 07:04:20;;;;;;;2.13;1.92;;;6.60;73.70;;;;;;5024867;28;20103;-75
2020/12/05 07:06:47;;;;;;;2.63;2.42;;;6.50;73.50;;;;;;5027821;28;20401;-76
2020/12/05 07:09:12;;;;;;;1.95;1.85;;;6.50;73.60;;;;;;5027541;28;20298;-76
2020/12/05 07:11:38;;;;;;;2.25;2.05;;;6.50;73.50;;;;;;5026722;28;20392;-75
2020/12/05 07:14:05;;;;;;;2.33;2.13;;;6.50;73.50;;;;;;5028317;28;20184;-75
2020/12/05 07:16:39;;;;;;;2.30;2.10;;;6.50;73.50;;;;;;5027911;28;20029;-75
2020/12/05 07:19:05;;;;;;;2.25;2.05;;;6.40;73.40;;;;;;5026060;28;20021;-76
2020/12/05 07:21:31;;;;;;;2.15;2.00;;;6.50;73.60;;;;;;5016083;28;20091;-75
2020/12/05 07:23:57;;;;;;;1.98;1.88;;;6.50;73.70;;;;;;5024974;28;20041;-75
2020/12/05 07:26:23;;;;;;;1.90;1.80;;;6.50;73.60;;;;;;5027813;28;20033;-75
2020/12/05 07:28:55;;;;;;;1.73;1.63;;;6.50;73.60;;;;;;5021770;28;20025;-75
2020/12/05 07:31:21;;;;;;;1.90;1.80;;;6.50;73.60;;;;;;5022304;28;20022;-75
2020/12/05 07:33:47;;;;;;;1.80;1.70;;;6.40;73.50;;;;;;5026682;28;20112;-76
2020/12/05 07:36:15;;;;;;;1.92;1.80;;;6.40;73.50;;;;;;5023295;28;20112;-76
2020/12/05 07:38:42;;;;;;;3.33;1.98;;;6.50;73.70;;;;;;5023967;28;20048;-74
2020/12/05 07:41:26;;;;;;;1.77;1.67;;;6.50;73.70;;;;;;5025642;28;20030;-75
2020/12/05 07:43:56;;;;;;;1.77;1.67;;;6.50;73.70;;;;;;5027371;28;20033;-76
2020/12/05 07:46:22;;;;;;;2.25;1.80;;;6.50;73.70;;;;;;5027147;28;20048;-76
2020/12/05 07:48:48;;;;;;;1.80;1.70;;;6.50;73.70;;;;;;5036857;28;20037;-76
2020/12/05 07:51:16;;;;;;;1.92;1.83;;;6.50;73.70;;;;;;5023675;28;20040;-77
2020/12/05 07:53:43;;;;;;;1.45;1.35;;;6.50;73.70;;;;;;5024679;28;20022;-76
2020/12/05 07:56:12;;;;;;;1.70;1.60;;;6.50;73.70;;;;;;5025755;28;20124;-74
2020/12/05 07:58:50;;;;;;;1.50;1.40;;;6.50;73.70;;;;;;5004051;28;20440;-76
2020/12/05 08:01:25;;;;;;;1.70;1.60;;;6.50;73.70;;;;;;5028306;28;20029;-74
2020/12/05 08:04:28;;;;;;;1.63;1.52;;;6.50;73.70;;;;;;5027520;28;20033;-75
2020/12/05 08:07:24;;;;;;;1.40;1.30;;;6.40;73.50;;;;;;5026143;28;20026;-74
2020/12/05 08:09:51;;;;;;;1.42;1.33;;;6.40;73.50;;;;;;5021343;28;20069;-75
2020/12/05 08:12:30;;;;;;;1.42;1.33;;;6.40;73.50;;;;;;5026443;28;20412;-76
2020/12/05 08:14:56;;;;;;;1.52;1.42;;;6.40;73.60;;;;;;5042442;28;20030;-75
2020/12/05 08:17:23;;;;;;;1.40;1.30;;;6.40;73.60;;;;;;5025307;28;20033;-75
2020/12/05 08:19:49;;;;;;;1.88;1.77;;;6.40;73.70;;;;;;5025382;28;20124;-75
2020/12/05 08:22:16;;;;;;;1.83;1.58;;;6.30;73.50;;;;;;5041405;28;20053;-75
2020/12/05 08:24:54;;;;;;;1.42;1.33;;;6.30;73.50;;;;;;5026334;28;20099;-75
2020/12/05 08:27:20;;;;;;;1.50;1.40;;;6.30;73.50;;;;;;5027440;28;20025;-75
2020/12/05 08:29:49;;;;;;;1.83;1.50;;;6.40;73.70;;;;;;5025769;28;20034;-75
2020/12/05 08:32:22;;;;;;;1.20;1.20;;;6.30;73.50;;;;;;5025243;28;20539;-75
2020/12/05 08:34:49;;;;;;;1.35;1.25;;;6.30;73.60;;;;;;5027299;28;20087;-75
2020/12/05 08:37:23;;;;;;;1.33;1.20;;;6.40;73.80;;;;;;5025874;28;20025;-75
2020/12/05 08:39:51;;;;;;;1.40;1.30;;;6.30;73.60;;;;;;5026942;28;20149;-75
2020/12/05 08:42:17;;;;;;;1.40;1.30;;;6.40;73.80;;;;;;5025752;28;20116;-76
2020/12/05 08:44:43;;;;;;;1.05;1.05;;;6.40;73.80;;;;;;5021639;28;20137;-75
2020/12/05 08:47:09;;;;;;;2.53;1.17;;;6.40;73.80;;;;;;5026367;28;20081;-74
2020/12/05 08:49:41;;;;;;;1.60;1.50;;;6.40;73.80;;;;;;5020551;28;20671;-76
2020/12/05 08:52:08;;;;;;;1.80;1.50;;;6.40;73.80;;;;;;5026535;28;20029;-75
2020/12/05 08:54:52;;;;;;;1.60;1.50;;;6.40;73.80;;;;;;5026416;28;20026;-75
2020/12/05 08:57:19;;;;;;;1.45;1.35;;;6.40;73.80;;;;;;5027275;28;20041;-75
2020/12/05 08:59:46;;;;;;;1.20;1.10;;;6.40;73.80;;;;;;5025449;28;20132;-75
2020/12/05 09:02:14;;;;;;;1.20;1.20;;;6.40;73.80;;;;;;5025200;28;20034;-77
2020/12/05 09:04:40;;;;;;;1.45;1.25;;;6.40;73.80;;;;;;5026750;28;20041;-76
2020/12/05 09:07:10;;;;;;;1.17;1.10;;;6.40;73.80;;;;;;5025358;28;20190;-76
2020/12/05 09:09:37;;;;;;;1.05;1.05;;;6.30;73.60;;;;;;5025016;28;20025;-75
2020/12/05 09:12:05;;;;;;;2.47;1.25;;;6.30;73.60;;;;;;5025082;28;20073;-76
2020/12/05 09:14:32;;;;;;;1.98;1.40;;;6.40;73.80;;;;;;4991703;28;20033;-76
2020/12/05 09:16:58;;;;;;;1.40;1.30;;;6.40;73.80;;;;;;5008980;28;20100;-77
2020/12/05 09:19:27;;;;;;;1.40;1.30;;;6.40;73.80;;;;;;5024844;28;20506;-76
2020/12/05 09:21:57;;;;;;;1.45;1.30;;;6.40;73.80;;;;;;5025371;28;20131;-76
2020/12/05 09:24:23;;;;;;;1.35;1.20;;;6.40;73.80;;;;;;5024165;28;20148;-76
2020/12/05 09:26:54;;;;;;;2.03;1.38;;;6.40;73.80;;;;;;5023647;28;20473;-76
2020/12/05 09:29:21;;;;;;;1.50;1.38;;;6.40;73.80;;;;;;5023211;28;20083;-85
2020/12/05 09:31:52;;;;;;;2.85;1.60;;;6.40;74.00;;;;;;5006516;28;20431;-77
2020/12/05 09:34:34;;;;;;;4.05;1.98;;;6.60;74.90;;;;;;5022940;28;20510;-76
2020/12/05 09:37:12;;;;;;;1.92;1.60;;;6.80;75.50;;;;;;5024387;28;20061;-76
2020/12/05 09:39:40;;;;;;;2.08;1.60;;;7.00;75.40;;;;;;5024293;28;20116;-75
2020/12/05 09:42:06;;;;;;;2.13;1.75;;;7.20;75.40;;;;;;5025995;28;20030;-75
2020/12/05 09:44:33;;;;;;;4.55;1.90;;;7.30;75.50;;;;;;5024415;28;20152;-76
2020/12/05 09:47:01;;;;;;;4.05;1.80;;;7.30;75.40;;;;;;5019320;28;20121;-77
2020/12/05 09:49:28;;;;;;;2.03;1.90;;;7.40;75.70;;;;;;5008258;28;20029;-77
2020/12/05 09:51:54;;;;;;;1.77;1.67;;;7.40;75.70;;;;;;5020100;28;20025;-77
2020/12/05 09:54:20;;;;;;;2.15;1.70;;;7.50;75.90;;;;;;5023908;28;20103;-77
2020/12/05 09:56:50;;;;;;;3.80;2.15;;;7.50;75.90;;;;;;5008104;28;20063;-76
2020/12/05 09:59:15;;;;;;;2.83;2.00;;;7.60;76.00;;;;;;5023823;28;20053;-77
2020/12/05 10:01:41;;;;;;;1.90;1.70;;;7.60;76.00;;;;;;5025474;28;20071;-77
2020/12/05 10:04:07;;;;;;;3.33;1.42;;;7.60;75.90;;;;;;5024908;28;20069;-76
2020/12/05 10:06:33;;;;;;;2.75;1.80;;;7.70;76.10;;;;;;5024295;28;20396;-78
2020/12/05 10:08:59;;;;;;;3.60;1.42;;;7.60;75.90;;;;;;5008345;28;20048;-77
2020/12/05 10:11:25;;;;;;;1.42;1.33;;;7.60;75.90;;;;;;5025065;28;20504;-77
2020/12/05 10:13:51;;;;;;;3.00;1.95;;;7.60;75.90;;;;;;5025559;28;20129;-76
2020/12/05 10:16:17;;;;;;;2.63;1.90;;;7.60;75.90;;;;;;5025722;28;20025;-76
2020/12/05 10:18:43;;;;;;;3.40;1.70;;;7.60;76.00;;;;;;5023976;28;20041;-78
2020/12/05 10:21:09;;;;;;;2.42;1.67;;;7.60;76.00;;;;;;5024754;28;20068;-76
2020/12/05 10:23:35;;;;;;;1.60;1.50;;;7.50;75.80;;;;;;5008024;28;20041;-78
2020/12/05 10:26:00;;;;;;;1.80;1.70;;;7.60;76.00;;;;;;5021385;28;20057;-77
2020/12/05 10:28:26;;;;;;;2.35;1.95;;;7.50;75.90;;;;;;5023884;28;20180;-76
2020/12/05 10:30:52;;;;;;;5.55;2.20;;;7.50;75.90;;;;;;5007905;28;20041;-75
2020/12/05 10:33:18;;;;;;;1.67;1.58;;;7.60;76.10;;;;;;5022693;28;20021;-78
2020/12/05 10:35:44;;;;;;;2.40;1.75;;;7.50;76.00;;;;;;5023066;28;20496;-76
2020/12/05 10:38:10;;;;;;;4.18;2.13;;;7.50;76.00;;;;;;5025311;28;20175;-77
2020/12/05 10:40:36;;;;;;;3.00;1.60;;;7.50;76.10;;;;;;5027809;28;20623;-75
2020/12/05 10:43:05;;;;;;;3.92;1.67;;;7.50;76.00;;;;;;5032279;28;20048;-78
2020/12/05 10:45:31;;;;;;;2.67;1.75;;;7.50;76.00;;;;;;5047447;28;20025;-80
2020/12/05 10:47:58;;;;;;;2.92;1.90;;;7.50;76.00;;;;;;5036913;28;20037;-75
2020/12/05 10:50:23;;;;;;;3.25;2.00;;;7.50;76.10;;;;;;5025866;28;20053;-77
2020/12/05 10:52:49;;;;;;;1.83;1.73;;;7.60;76.30;;;;;;5016715;28;20069;-78
2020/12/05 10:55:15;;;;;;;6.93;2.17;;;7.60;76.40;;;;;;5026594;28;20049;-76
2020/12/05 10:57:41;;;;;;;5.10;2.10;;;7.70;76.60;;;;;;5025585;28;20143;-75
2020/12/05 11:00:07;;;;;;;5.22;2.42;;;7.80;76.70;;;;;;5027710;28;20496;-75
2020/12/05 11:02:33;;;;;;;6.65;2.10;;;7.80;76.60;;;;;;5028336;28;20111;-78
2020/12/05 11:04:59;;;;;;;4.30;2.08;;;7.80;76.60;;;;;;5026195;28;20033;-76
2020/12/05 11:07:25;;;;;;;3.50;2.05;;;7.80;76.50;;;;;;5027319;28;20024;-76
2020/12/05 11:09:51;;;;;;;3.47;1.98;;;7.80;76.50;;;;;;5027513;28;20025;-76
2020/12/05 11:12:17;;;;;;;3.25;2.10;;;7.80;76.40;;;;;;5028770;28;20047;-76
2020/12/05 11:14:43;;;;;;;5.18;2.08;;;7.80;76.40;;;;;;5029176;28;20033;-75
2020/12/05 11:17:09;;;;;;;5.00;1.90;;;7.80;76.40;;;;;;5027624;28;20037;-76
2020/12/05 11:19:35;;;;;;;3.20;1.58;;;7.80;76.40;;;;;;5027883;28;20060;-76
2020/12/05 11:22:01;;;;;;;3.65;1.98;;;7.80;76.40;;;;;;5029121;28;20040;-77
2020/12/05 11:24:26;;;;;;;3.83;2.30;;;7.80;76.40;;;;;;5026821;28;20079;-76
2020/12/05 11:26:53;;;;;;;3.13;1.77;;;7.80;76.40;;;;;;5027230;28;20025;-76
2020/12/05 11:29:19;;;;;;;5.50;2.30;;;7.80;76.40;;;;;;5027922;28;20520;-76
2020/12/05 11:31:45;;;;;;;4.38;2.17;;;7.80;76.30;;;;;;5010785;28;20048;-75
2020/12/05 11:34:11;;;;;;;2.15;1.80;;;7.80;76.30;;;;;;5026362;28;20037;-77
2020/12/05 11:36:43;;;;;;;2.85;2.00;;;7.80;76.40;;;;;;5026487;28;20509;-77
2020/12/05 11:39:09;;;;;;;4.75;2.20;;;7.80;76.40;;;;;;5010558;28;20370;-77
2020/12/05 11:41:35;;;;;;;3.58;1.90;;;7.80;76.40;;;;;;5027644;28;20070;-77
2020/12/05 11:44:03;;;;;;;3.42;1.63;;;7.80;76.40;;;;;;5028281;28;20084;-76
2020/12/05 11:46:32;;;;;;;2.42;1.50;;;7.80;76.40;;;;;;5020836;28;20382;-76
2020/12/05 11:48:58;;;;;;;2.95;1.63;;;7.80;76.40;;;;;;5021012;28;20042;-77
2020/12/05 11:51:25;;;;;;;4.25;2.17;;;7.90;76.60;;;;;;5027796;28;20044;-78
2020/12/05 11:53:52;;;;;;;3.80;1.73;;;7.90;76.60;;;;;;5026923;28;20138;-78
2020/12/05 11:56:18;;;;;;;3.92;2.22;;;7.90;76.50;;;;;;5026710;28;20384;-77
2020/12/05 11:58:44;;;;;;;4.35;1.90;;;8.00;76.70;;;;;;5027742;28;20045;-79
2020/12/05 12:01:10;;;;;;;7.00;2.55;;;8.10;76.70;;;;;;5026581;28;20085;-76
2020/12/05 12:03:36;;;;;;;4.53;2.47;;;8.10;76.60;;;;;;5027681;28;20953;-76
2020/12/05 12:06:03;;;;;;;5.47;2.10;;;8.20;76.70;;;;;;5027773;28;20559;-77
2020/12/05 12:08:29;;;;;;;5.22;2.63;;;8.20;76.60;;;;;;5026714;28;20033;-77
2020/12/05 12:10:55;;;;;;;2.85;2.20;;;8.30;76.70;;;;;;5027567;28;20396;-76
2020/12/05 12:13:21;;;;;;;6.40;2.40;;;8.30;76.60;;;;;;5028152;28;20027;-77
2020/12/05 12:15:47;;;;;;;5.18;2.30;;;8.40;76.70;;;;;;5031112;28;20033;-76
2020/12/05 12:18:13;;;;;;;7.22;2.70;;;8.40;76.60;;;;;;5027813;28;20084;-78
2020/12/05 12:20:40;;;;;;;3.35;2.20;;;8.50;76.70;;;;;;5025961;28;20575;-77
2020/12/05 12:23:06;;;;;;;4.22;2.50;;;8.60;76.80;;;;;;5024946;28;20047;-76
2020/12/05 12:25:32;;;;;;;4.93;2.47;;;8.60;76.70;;;;;;5027546;28;20132;-76
2020/12/05 12:27:58;;;;;;;8.55;2.85;;;8.60;76.60;;;;;;5025550;28;20025;-76
2020/12/05 12:30:24;;;;;;;3.88;2.60;;;8.70;76.70;;;;;;5026952;28;20389;-76
2020/12/05 12:32:50;;;;;;;4.35;2.60;;;8.80;76.80;;;;;;5025795;28;20048;-76
2020/12/05 12:35:16;;;;;;;4.82;2.00;;;8.80;76.70;;;;;;5027050;28;20397;-76
2020/12/05 12:37:42;;;;;;;6.78;2.63;;;8.80;76.70;;;;;;5027250;28;20472;-75
2020/12/05 12:40:08;;;;;;;4.70;2.13;;;8.80;76.60;;;;;;5025092;28;20524;-75
2020/12/05 12:42:34;;;;;;;5.30;2.67;;;8.90;76.70;;;;;;5026872;28;20061;-75
2020/12/05 12:45:00;;;;;;;7.75;2.85;;;8.90;76.70;;;;;;5026897;28;20044;-75
2020/12/05 12:49:58;;;;;;;5.32;2.20;;;8.90;76.70;;;;;;5026446;28;20043;-75
2020/12/05 12:52:24;;;;;;;5.80;2.47;;;8.90;76.70;;;;;;5025960;28;20037;-75
2020/12/05 12:54:50;;;;;;;6.68;2.30;;;8.90;76.60;;;;;;5025467;28;20061;-75
2020/12/05 12:57:17;;;;;;;3.45;2.35;;;8.80;76.40;;;;;;5024836;28;20555;-75
2020/12/05 12:59:43;;;;;;;5.88;3.10;;;8.90;76.60;;;;;;5008871;28;20103;-76
2020/12/05 13:02:09;;;;;;;4.50;2.50;;;8.90;76.60;;;;;;5009239;28;20029;-77
2020/12/05 13:04:35;;;;;;;5.93;2.67;;;8.80;76.30;;;;;;5027939;28;20037;-76
2020/12/05 13:07:01;;;;;;;6.45;2.55;;;8.80;76.30;;;;;;5023655;28;20034;-75